createdAt,value
2022-10-14T00:01:22.951Z,100.00
2022-10-14T00:03:51.993Z,100.00
2022-10-14T00:06:23.065Z,100.00
2022-10-14T00:08:51.670Z,100.00
2022-10-14T00:11:21.567Z,100.00
2022-10-14T00:13:50.225Z,100.00
2022-10-14T00:16:22.338Z,100.00
2022-10-14T00:18:50.543Z,100.00
2022-10-14T00:21:18.984Z,100.00
2022-10-14T00:23:47.835Z,100.00
2022-10-14T00:26:18.492Z,100.00
2022-10-14T00:28:47.251Z,100.00
2022-10-14T00:31:16.107Z,100.00
2022-10-14T00:33:47.808Z,100.00
2022-10-14T00:36:18.859Z,100.00
2022-10-14T00:38:47.214Z,100.00
2022-10-14T00:41:18.860Z,100.00
2022-10-14T00:43:57.653Z,100.00
2022-10-14T00:46:27.092Z,100.00
2022-10-14T00:49:05.120Z,100.00
2022-10-14T00:51:33.350Z,100.00
2022-10-14T00:54:01.531Z,100.00
2022-10-14T00:56:31.534Z,100.00
2022-10-14T00:59:01.047Z,100.00
2022-10-14T01:01:29.392Z,100.00
2022-10-14T01:03:57.320Z,100.00
2022-10-14T01:06:40.795Z,100.00
2022-10-14T01:09:19.878Z,100.00
2022-10-14T01:12:23.369Z,100.00
2022-10-14T01:14:54.836Z,100.00
2022-10-14T01:17:36.243Z,100.00
2022-10-14T01:20:30.161Z,100.00
2022-10-14T01:23:17.931Z,100.00
2022-10-14T01:25:56.408Z,100.00
2022-10-14T01:28:33.044Z,100.00
2022-10-14T01:31:05.869Z,100.00
2022-10-14T01:33:38.162Z,100.00
2022-10-14T01:36:11.608Z,100.00
2022-10-14T01:38:42.697Z,100.00
2022-10-14T01:41:15.824Z,100.00
2022-10-14T01:43:47.833Z,100.00
2022-10-14T01:46:20.893Z,100.00
2022-10-14T01:48:53.857Z,100.00
2022-10-14T01:51:25.563Z,100.00
2022-10-14T01:53:58.658Z,100.00
2022-10-14T01:56:29.075Z,100.00
2022-10-14T01:59:00.544Z,100.00
2022-10-14T02:01:30.034Z,100.00
2022-10-14T02:03:58.117Z,100.00
2022-10-14T02:06:34.931Z,100.00
2022-10-14T02:09:13.237Z,100.00
2022-10-14T02:12:02.268Z,100.00
2022-10-14T02:14:39.674Z,100.00
2022-10-14T02:17:13.595Z,100.00
2022-10-14T02:19:48.488Z,100.00
2022-10-14T02:22:26.431Z,100.00
2022-10-14T02:24:59.306Z,100.00
2022-10-14T02:27:29.728Z,100.00
2022-10-14T02:30:01.005Z,100.00
2022-10-14T02:32:31.943Z,100.00
2022-10-14T02:35:03.102Z,100.00
2022-10-14T02:37:32.420Z,100.00
2022-10-14T02:40:06.311Z,100.00
2022-10-14T02:42:34.444Z,100.00
2022-10-14T02:45:06.078Z,100.00
2022-10-14T02:47:35.432Z,100.00
2022-10-14T02:50:03.691Z,100.00
2022-10-14T02:52:31.735Z,100.00
2022-10-14T02:54:59.640Z,100.00
2022-10-14T02:57:27.633Z,100.00
2022-10-14T02:59:58.187Z,100.00
2022-10-14T03:02:26.391Z,100.00
2022-10-14T03:04:56.087Z,100.00
2022-10-14T03:07:24.389Z,100.00
2022-10-14T03:09:53.927Z,100.00
2022-10-14T03:12:25.101Z,100.00
2022-10-14T03:14:55.048Z,100.00
2022-10-14T03:17:25.183Z,100.00
2022-10-14T03:19:55.494Z,100.00
2022-10-14T03:22:26.743Z,100.00
2022-10-14T03:24:56.104Z,100.00
2022-10-14T03:27:41.320Z,100.00
2022-10-14T03:30:13.476Z,100.00
2022-10-14T03:32:54.893Z,100.00
2022-10-14T03:35:47.193Z,100.00
2022-10-14T03:38:18.976Z,100.00
2022-10-14T03:40:48.725Z,100.00
2022-10-14T03:43:17.848Z,100.00
2022-10-14T03:45:52.689Z,100.00
2022-10-14T03:48:23.265Z,100.00
2022-10-14T03:50:52.571Z,100.00
2022-10-14T03:53:21.361Z,100.00
2022-10-14T03:55:50.989Z,100.00
2022-10-14T03:58:19.082Z,100.00
2022-10-14T04:00:56.917Z,100.00
2022-10-14T04:03:38.357Z,100.00
2022-10-14T04:06:07.927Z,100.00
2022-10-14T04:08:37.403Z,100.00
2022-10-14T04:11:19.164Z,100.00
2022-10-14T04:13:49.210Z,100.00
2022-10-14T04:16:17.306Z,100.00
2022-10-14T04:18:59.857Z,100.00
2022-10-14T04:21:29.285Z,100.00
2022-10-14T04:23:58.933Z,100.00
2022-10-14T04:26:39.752Z,100.00
2022-10-14T04:29:14.082Z,100.00
2022-10-14T04:31:54.509Z,100.00
2022-10-14T04:34:23.672Z,100.00
2022-10-14T04:36:55.025Z,100.00
2022-10-14T04:39:39.963Z,100.00
2022-10-14T04:42:08.059Z,100.00
2022-10-14T04:44:36.550Z,100.00
2022-10-14T04:47:05.848Z,100.00
2022-10-14T04:49:34.020Z,100.00
2022-10-14T04:52:12.899Z,100.00
2022-10-14T04:54:47.555Z,100.00
2022-10-14T04:57:15.556Z,100.00
2022-10-14T04:59:48.281Z,100.00
2022-10-14T05:02:34.699Z,100.00
2022-10-14T05:05:03.543Z,100.00
2022-10-14T05:07:37.430Z,100.00
2022-10-14T05:10:21.338Z,100.00
2022-10-14T05:12:50.112Z,100.00
2022-10-14T05:15:19.672Z,100.00
2022-10-14T05:17:59.240Z,100.00
2022-10-14T05:20:41.464Z,100.00
2022-10-14T05:23:10.856Z,100.00
2022-10-14T05:25:38.880Z,100.00
2022-10-14T05:28:06.979Z,100.00
2022-10-14T05:30:36.106Z,100.00
2022-10-14T05:33:08.219Z,100.00
2022-10-14T05:35:58.139Z,100.00
2022-10-14T05:38:29.009Z,100.00
2022-10-14T05:40:58.838Z,100.00
2022-10-14T05:43:32.066Z,100.00
2022-10-14T05:46:02.299Z,100.00
2022-10-14T05:48:34.521Z,100.00
2022-10-14T05:51:03.518Z,100.00
2022-10-14T05:53:35.629Z,100.00
2022-10-14T05:56:09.879Z,100.00
2022-10-14T05:58:40.193Z,100.00
2022-10-14T06:01:11.600Z,100.00
2022-10-14T06:03:42.405Z,100.00
2022-10-14T06:06:13.350Z,100.00
2022-10-14T06:08:43.088Z,100.00
2022-10-14T06:11:11.003Z,100.00
2022-10-14T06:13:39.741Z,100.00
2022-10-14T06:16:11.124Z,100.00
2022-10-14T06:18:39.532Z,100.00
2022-10-14T06:21:08.504Z,100.00
2022-10-14T06:23:36.719Z,100.00
2022-10-14T06:26:09.829Z,100.00
2022-10-14T06:28:38.473Z,100.00
2022-10-14T06:31:06.874Z,100.00
2022-10-14T06:33:35.260Z,100.00
2022-10-14T06:36:04.042Z,100.00
2022-10-14T06:38:32.010Z,100.00
2022-10-14T06:41:00.192Z,100.00
2022-10-14T06:43:30.131Z,100.00
2022-10-14T06:45:59.550Z,100.00
2022-10-14T06:48:27.628Z,100.00
2022-10-14T06:50:55.611Z,100.00
2022-10-14T06:53:23.568Z,100.00
2022-10-14T06:55:57.803Z,100.00
2022-10-14T06:58:25.760Z,100.00
2022-10-14T07:00:55.255Z,100.00
2022-10-14T07:03:23.555Z,100.00
2022-10-14T07:05:51.861Z,100.00
2022-10-14T07:08:19.856Z,100.00
2022-10-14T07:10:48.212Z,100.00
2022-10-14T07:13:16.279Z,100.00
2022-10-14T07:15:44.244Z,100.00
2022-10-14T07:18:14.103Z,100.00
2022-10-14T07:20:42.019Z,100.00
2022-10-14T07:23:09.942Z,100.00
2022-10-14T07:25:38.002Z,100.00
2022-10-14T07:28:06.377Z,100.00
2022-10-14T07:30:34.440Z,100.00
2022-10-14T07:33:02.774Z,100.00
2022-10-14T07:35:32.347Z,100.00
2022-10-14T07:38:00.980Z,100.00
2022-10-14T07:40:29.549Z,100.00
2022-10-14T07:42:57.758Z,100.00
2022-10-14T07:45:25.735Z,100.00
2022-10-14T07:47:53.834Z,100.00
2022-10-14T07:50:21.790Z,100.00
2022-10-14T07:52:51.291Z,100.00
2022-10-14T07:55:19.284Z,100.00
2022-10-14T07:57:47.200Z,100.00
2022-10-14T08:00:15.565Z,100.00
2022-10-14T08:02:43.575Z,100.00
2022-10-14T08:08:01.442Z,100.00
2022-10-14T08:10:29.575Z,100.00
2022-10-14T08:12:58.054Z,100.00
2022-10-14T08:15:28.537Z,100.00
2022-10-14T08:17:56.565Z,100.00
2022-10-14T08:20:24.507Z,100.00
2022-10-14T08:22:52.436Z,100.00
2022-10-14T08:25:22.457Z,100.00
2022-10-14T08:27:51.250Z,100.00
2022-10-14T08:30:19.522Z,100.00
2022-10-14T08:32:47.612Z,100.00
2022-10-14T08:35:16.081Z,100.00
2022-10-14T08:37:44.124Z,100.00
2022-10-14T08:40:18.218Z,100.00
2022-10-14T08:42:55.364Z,100.00
2022-10-14T08:45:30.393Z,100.00
2022-10-14T08:48:00.473Z,100.00
2022-10-14T08:50:34.469Z,100.00
2022-10-14T08:53:08.423Z,100.00
2022-10-14T08:55:39.884Z,100.00
2022-10-14T08:58:15.804Z,100.00
2022-10-14T09:00:46.901Z,100.00
2022-10-14T09:03:22.120Z,100.00
2022-10-14T09:05:58.743Z,100.00
2022-10-14T09:08:31.864Z,100.00
2022-10-14T09:11:00.281Z,100.00
2022-10-14T09:13:36.103Z,100.00
2022-10-14T09:16:09.324Z,100.00
2022-10-14T09:18:41.848Z,100.00
2022-10-14T09:21:40.424Z,100.00
2022-10-14T09:24:16.676Z,100.00
2022-10-14T09:26:46.371Z,100.00
2022-10-14T09:29:25.030Z,100.00
2022-10-14T09:31:53.308Z,100.00
2022-10-14T09:34:26.732Z,100.00
2022-10-14T09:36:54.857Z,100.00
2022-10-14T09:39:22.905Z,100.00
2022-10-14T09:41:54.275Z,100.00
2022-10-14T09:44:25.913Z,100.00
2022-10-14T09:46:57.330Z,100.00
2022-10-14T09:49:35.913Z,100.00
2022-10-14T09:52:04.167Z,100.00
2022-10-14T09:54:33.503Z,100.00
2022-10-14T09:57:05.118Z,100.00
2022-10-14T09:59:35.401Z,100.00
2022-10-14T10:02:05.548Z,100.00
2022-10-14T10:04:37.449Z,100.00
2022-10-14T10:07:07.704Z,100.00
2022-10-14T10:09:35.875Z,100.00
2022-10-14T10:12:24.489Z,100.00
2022-10-14T10:15:03.693Z,100.00
2022-10-14T10:17:32.753Z,100.00
2022-10-14T10:20:20.524Z,100.00
2022-10-14T10:22:49.050Z,100.00
2022-10-14T10:25:27.250Z,99.77
2022-10-14T10:27:59.481Z,99.34
2022-10-14T10:30:32.359Z,99.36
2022-10-14T10:33:17.067Z,98.67
2022-10-14T10:36:05.471Z,97.27
2022-10-14T10:38:40.410Z,96.92
2022-10-14T10:41:23.634Z,96.61
2022-10-14T10:44:18.487Z,96.54
2022-10-14T10:47:05.822Z,96.64
2022-10-14T10:52:42.504Z,97.12
2022-10-14T10:55:19.135Z,97.02
2022-10-14T10:58:02.621Z,96.66
2022-10-14T11:00:42.643Z,96.17
2022-10-14T11:03:30.877Z,95.81
2022-10-14T11:06:07.484Z,96.13
2022-10-14T11:09:06.010Z,95.72
2022-10-14T11:12:00.025Z,94.19
2022-10-14T11:14:48.559Z,95.18
2022-10-14T11:17:26.883Z,94.27
2022-10-14T11:20:05.464Z,93.82
2022-10-14T11:22:55.963Z,94.35
2022-10-14T11:25:34.688Z,94.00
2022-10-14T11:28:11.266Z,93.35
2022-10-14T11:30:47.752Z,92.74
2022-10-14T11:33:29.471Z,92.31
2022-10-14T11:36:08.164Z,90.21
2022-10-14T11:38:55.452Z,89.86
2022-10-14T11:41:35.487Z,89.76
2022-10-14T11:44:11.224Z,90.01
2022-10-14T11:46:42.990Z,89.60
2022-10-14T11:49:20.150Z,90.10
2022-10-14T11:51:54.090Z,90.69
2022-10-14T11:54:29.523Z,90.72
2022-10-14T11:57:02.561Z,90.82
2022-10-14T11:59:40.087Z,91.90
2022-10-14T12:02:34.764Z,92.93
2022-10-14T12:05:11.649Z,93.46
2022-10-14T12:07:46.199Z,92.57
2022-10-14T12:10:23.407Z,92.42
2022-10-14T12:12:52.890Z,92.78
2022-10-14T12:15:24.951Z,92.99
2022-10-14T12:17:57.040Z,92.56
2022-10-14T12:20:33.538Z,93.28
2022-10-14T12:23:04.381Z,93.22
2022-10-14T12:25:40.067Z,93.68
2022-10-14T12:28:09.772Z,93.63
2022-10-14T12:30:39.656Z,94.35
2022-10-14T12:33:09.578Z,93.98
2022-10-14T12:35:53.328Z,94.87
2022-10-14T12:38:23.151Z,95.12
2022-10-14T12:40:51.120Z,95.13
2022-10-14T12:43:25.667Z,95.38
2022-10-14T12:46:14.449Z,95.05
2022-10-14T12:48:50.352Z,95.95
2022-10-14T12:51:21.016Z,95.24
2022-10-14T12:53:55.624Z,95.86
2022-10-14T12:56:36.322Z,96.16
2022-10-14T12:59:07.568Z,96.99
2022-10-14T13:01:38.893Z,97.51
2022-10-14T13:04:19.916Z,97.48
2022-10-14T13:07:46.590Z,98.02
2022-10-14T13:10:47.324Z,99.28
2022-10-14T13:13:52.519Z,99.35
2022-10-14T13:17:06.469Z,98.91
2022-10-14T13:19:45.437Z,98.34
2022-10-14T13:22:45.943Z,98.79
2022-10-14T13:25:17.708Z,99.04
2022-10-14T13:27:56.585Z,99.82
2022-10-14T13:30:33.982Z,99.58
2022-10-14T13:33:11.979Z,99.97
2022-10-14T13:35:53.545Z,100.00
2022-10-14T13:38:24.841Z,99.85
2022-10-14T13:40:55.356Z,99.53
2022-10-14T13:43:29.165Z,99.79
2022-10-14T13:46:07.980Z,100.00
2022-10-14T13:48:40.231Z,100.00
2022-10-14T13:51:36.671Z,100.00
2022-10-14T13:54:17.852Z,100.00
2022-10-14T13:57:12.617Z,100.00
2022-10-14T14:02:42.875Z,99.13
2022-10-14T14:05:17.008Z,98.97
2022-10-14T14:10:39.177Z,99.30
2022-10-14T14:13:14.389Z,99.53
2022-10-14T14:15:43.850Z,99.73
2022-10-14T14:18:33.942Z,99.73
2022-10-14T14:21:13.989Z,99.79
2022-10-14T14:23:51.063Z,100.00
2022-10-14T14:26:20.160Z,100.00
2022-10-14T14:28:49.455Z,100.00
2022-10-14T14:31:23.052Z,100.00
2022-10-14T14:33:51.148Z,100.00
2022-10-14T14:36:27.846Z,100.00
2022-10-14T14:39:03.354Z,100.00
2022-10-14T14:41:33.236Z,100.00
2022-10-14T14:44:25.689Z,100.00
2022-10-14T14:46:59.311Z,100.00
2022-10-14T14:49:30.587Z,100.00
2022-10-14T14:52:00.599Z,100.00
2022-10-14T14:54:29.899Z,100.00
2022-10-14T14:57:05.013Z,100.00
2022-10-14T14:59:36.764Z,100.00
2022-10-14T15:02:14.500Z,100.00
2022-10-14T15:04:43.819Z,100.00
2022-10-14T15:07:21.067Z,100.00
2022-10-14T15:09:52.693Z,100.00
2022-10-14T15:12:24.198Z,100.00
2022-10-14T15:14:53.869Z,100.00
2022-10-14T15:17:32.174Z,100.00
2022-10-14T15:20:21.781Z,100.00
2022-10-14T15:22:51.798Z,100.00
2022-10-14T15:25:30.669Z,100.00
2022-10-14T15:27:59.871Z,100.00
2022-10-14T15:30:34.697Z,100.00
2022-10-14T15:33:13.863Z,100.00
2022-10-14T15:35:42.291Z,100.00
2022-10-14T15:38:16.147Z,100.00
2022-10-14T15:40:45.203Z,100.00
2022-10-14T15:43:17.615Z,100.00
2022-10-14T15:46:10.660Z,100.00
2022-10-14T15:48:40.498Z,100.00
2022-10-14T15:51:08.470Z,100.00
2022-10-14T15:53:36.567Z,100.00
2022-10-14T15:56:04.502Z,100.00
2022-10-14T15:58:33.775Z,100.00
2022-10-14T16:01:02.305Z,100.00
2022-10-14T16:03:34.571Z,100.00
2022-10-14T16:06:05.635Z,100.00
2022-10-14T16:08:34.117Z,100.00
2022-10-14T16:11:04.338Z,100.00
2022-10-14T16:13:32.281Z,100.00
2022-10-14T16:16:02.892Z,100.00
2022-10-14T16:18:30.795Z,100.00
2022-10-14T16:20:58.826Z,100.00
2022-10-14T16:23:32.511Z,100.00
2022-10-14T16:26:01.985Z,100.00
2022-10-14T16:28:30.003Z,100.00
2022-10-14T16:30:59.971Z,100.00
2022-10-14T16:33:28.031Z,100.00
2022-10-14T16:35:57.596Z,100.00
2022-10-14T16:38:25.641Z,100.00
2022-10-14T16:40:59.060Z,100.00
2022-10-14T16:43:27.658Z,100.00
2022-10-14T16:45:59.100Z,100.00
2022-10-14T16:48:27.984Z,100.00
2022-10-14T16:50:56.585Z,100.00
2022-10-14T16:53:45.186Z,100.00
2022-10-14T16:56:34.349Z,100.00
2022-10-14T16:59:02.933Z,100.00
2022-10-14T17:01:30.998Z,100.00
2022-10-14T17:03:59.446Z,100.00
2022-10-14T17:06:27.983Z,100.00
2022-10-14T17:08:55.903Z,100.00
2022-10-14T17:11:27.378Z,100.00
2022-10-14T17:13:57.492Z,100.00
2022-10-14T17:16:27.100Z,100.00
2022-10-14T17:18:55.128Z,100.00
2022-10-14T17:21:23.076Z,100.00
2022-10-14T17:23:51.284Z,100.00
2022-10-14T17:26:20.762Z,100.00
2022-10-14T17:28:50.654Z,100.00
2022-10-14T17:31:22.630Z,100.00
2022-10-14T17:33:51.048Z,100.00
2022-10-14T17:36:21.084Z,100.00
2022-10-14T17:38:50.751Z,100.00
2022-10-14T17:41:19.582Z,100.00
2022-10-14T17:43:49.549Z,100.00
2022-10-14T17:46:21.333Z,100.00
2022-10-14T17:48:51.782Z,100.00
2022-10-14T17:51:22.919Z,100.00
2022-10-14T17:53:53.943Z,100.00
2022-10-14T17:56:22.260Z,100.00
2022-10-14T17:58:53.293Z,100.00
2022-10-14T18:01:36.811Z,100.00
2022-10-14T18:04:11.098Z,100.00
2022-10-14T18:06:39.134Z,100.00
2022-10-14T18:09:09.648Z,100.00
2022-10-14T18:12:06.949Z,100.00
2022-10-14T18:14:29.216Z,100.00
2022-10-14T18:16:59.415Z,100.00
2022-10-14T18:19:27.845Z,100.00
2022-10-14T18:21:55.822Z,100.00
2022-10-14T18:24:23.850Z,100.00
2022-10-14T18:26:52.165Z,100.00
2022-10-14T18:29:20.168Z,100.00
2022-10-14T18:34:25.496Z,100.00
2022-10-14T18:36:53.456Z,100.00
2022-10-14T18:39:21.587Z,100.00
2022-10-14T18:41:49.558Z,100.00
2022-10-14T18:44:17.885Z,100.00
2022-10-14T18:46:47.701Z,100.00
2022-10-14T18:49:15.628Z,100.00
2022-10-14T18:51:45.065Z,100.00
2022-10-14T18:54:15.906Z,100.00
2022-10-14T18:56:44.773Z,99.72
2022-10-14T18:59:14.677Z,99.49
2022-10-14T19:01:43.074Z,99.76
2022-10-14T19:04:13.460Z,99.67
2022-10-14T19:06:42.726Z,99.25
2022-10-14T19:09:13.797Z,99.16
2022-10-14T19:11:42.739Z,99.27
2022-10-14T19:14:10.952Z,99.40
2022-10-14T19:16:39.946Z,99.58
2022-10-14T19:19:11.688Z,99.26
2022-10-14T19:21:40.072Z,99.92
2022-10-14T19:24:08.855Z,100.00
2022-10-14T19:26:40.530Z,100.00
2022-10-14T19:29:11.754Z,100.00
2022-10-14T19:31:41.007Z,100.00
2022-10-14T19:34:13.926Z,100.00
2022-10-14T19:36:42.584Z,100.00
2022-10-14T19:39:14.535Z,100.00
2022-10-14T19:41:46.440Z,100.00
2022-10-14T19:44:15.538Z,100.00
2022-10-14T19:46:43.752Z,100.00
2022-10-14T19:49:13.725Z,100.00
2022-10-14T19:51:41.852Z,100.00
2022-10-14T19:54:12.010Z,100.00
2022-10-14T19:56:39.986Z,100.00
2022-10-14T19:59:10.467Z,100.00
2022-10-14T20:01:38.540Z,100.00
2022-10-14T20:04:07.093Z,100.00
2022-10-14T20:06:37.814Z,100.00
2022-10-14T20:09:06.117Z,100.00
2022-10-14T20:11:34.329Z,100.00
2022-10-14T20:14:02.335Z,100.00
2022-10-14T20:16:31.757Z,100.00
2022-10-14T20:18:59.710Z,100.00
2022-10-14T20:21:30.063Z,100.00
2022-10-14T20:23:59.371Z,100.00
2022-10-14T20:26:27.559Z,100.00
2022-10-14T20:28:55.979Z,100.00
2022-10-14T20:31:25.554Z,100.00
2022-10-14T20:33:56.251Z,100.00
2022-10-14T20:36:24.711Z,100.00
2022-10-14T20:38:52.966Z,100.00
2022-10-14T20:41:23.039Z,100.00
2022-10-14T20:43:51.417Z,100.00
2022-10-14T20:46:20.154Z,100.00
2022-10-14T20:48:48.050Z,100.00
2022-10-14T20:51:19.642Z,100.00
2022-10-14T20:53:47.547Z,100.00
2022-10-14T20:56:15.957Z,100.00
2022-10-14T20:58:44.056Z,100.00
2022-10-14T21:01:13.777Z,100.00
2022-10-14T21:03:43.232Z,100.00
2022-10-14T21:06:15.159Z,100.00
2022-10-14T21:08:45.073Z,100.00
2022-10-14T21:11:15.531Z,100.00
2022-10-14T21:13:45.947Z,100.00
2022-10-14T21:16:15.388Z,100.00
2022-10-14T21:18:46.536Z,100.00
2022-10-14T21:21:16.759Z,100.00
2022-10-14T21:23:46.571Z,100.00
2022-10-14T21:26:14.837Z,100.00
2022-10-14T21:28:43.180Z,100.00
2022-10-14T21:31:17.399Z,100.00
2022-10-14T21:33:47.549Z,100.00
2022-10-14T21:36:17.277Z,100.00
2022-10-14T21:38:46.624Z,100.00
2022-10-14T21:41:14.631Z,100.00
2022-10-14T21:43:42.937Z,100.00
2022-10-14T21:46:13.185Z,100.00
2022-10-14T21:48:42.000Z,100.00
2022-10-14T21:51:12.279Z,100.00
2022-10-14T21:53:41.704Z,100.00
2022-10-14T21:56:12.884Z,100.00
2022-10-14T21:58:41.453Z,100.00
2022-10-14T22:01:12.851Z,100.00
2022-10-14T22:03:41.639Z,100.00
2022-10-14T22:06:12.003Z,100.00
2022-10-14T22:08:42.180Z,100.00
2022-10-14T22:11:18.451Z,100.00
2022-10-14T22:13:46.881Z,100.00
2022-10-14T22:16:16.946Z,100.00
2022-10-14T22:18:46.875Z,100.00
2022-10-14T22:21:17.203Z,100.00
2022-10-14T22:23:45.887Z,100.00
2022-10-14T22:26:15.739Z,100.00
2022-10-14T22:28:45.427Z,100.00
2022-10-14T22:31:16.245Z,100.00
2022-10-14T22:33:44.302Z,100.00
2022-10-14T22:36:14.391Z,100.00
2022-10-14T22:38:45.372Z,100.00
2022-10-14T22:41:15.312Z,100.00
2022-10-14T22:43:48.461Z,100.00
2022-10-14T22:46:19.633Z,100.00
2022-10-14T22:48:48.408Z,100.00
2022-10-14T22:51:18.476Z,100.00
2022-10-14T22:53:47.537Z,100.00
2022-10-14T22:56:18.099Z,100.00
2022-10-14T22:58:47.409Z,100.00
2022-10-14T23:01:17.537Z,100.00
2022-10-14T23:03:45.524Z,100.00
2022-10-14T23:06:14.703Z,100.00
2022-10-14T23:08:43.228Z,100.00
2022-10-14T23:11:13.811Z,100.00
2022-10-14T23:13:42.084Z,100.00
2022-10-14T23:16:14.315Z,100.00
2022-10-14T23:21:17.454Z,100.00
2022-10-14T23:23:46.694Z,100.00
2022-10-14T23:26:16.143Z,100.00
2022-10-14T23:28:44.239Z,100.00
2022-10-14T23:31:15.317Z,100.00
2022-10-14T23:33:43.421Z,100.00
2022-10-14T23:36:13.407Z,100.00
2022-10-14T23:38:41.675Z,100.00
2022-10-14T23:41:11.138Z,100.00
2022-10-14T23:43:39.359Z,100.00
2022-10-14T23:46:07.943Z,100.00
2022-10-14T23:48:38.003Z,100.00
2022-10-14T23:51:06.199Z,100.00
2022-10-14T23:53:35.004Z,100.00
2022-10-14T23:56:03.143Z,100.00
2022-10-14T23:58:31.075Z,100.00
